createdAt,value
2023-02-12T00:00:19.604Z,24
2023-02-12T00:02:47.858Z,25
2023-02-12T00:05:16.114Z,27.7
2023-02-12T00:07:44.370Z,28.1
2023-02-12T00:10:12.632Z,26.8
2023-02-12T00:12:40.884Z,36.1
2023-02-12T00:15:09.139Z,26.1
2023-02-12T00:17:37.400Z,27.7
2023-02-12T00:22:33.915Z,29
2023-02-12T00:23:48.649Z,30.4
2023-02-12T00:25:02.191Z,16.8
2023-02-12T00:27:30.449Z,15.8
2023-02-12T00:29:58.704Z,18.5
2023-02-12T00:32:26.959Z,16.3
2023-02-12T00:34:55.215Z,15.1
2023-02-12T00:37:23.477Z,15.7
2023-02-12T00:39:51.729Z,15.2
2023-02-12T00:42:19.987Z,17.1
2023-02-12T00:44:48.239Z,17
2023-02-12T00:47:16.497Z,18
2023-02-12T00:48:31.233Z,20.8
2023-02-12T00:52:13.261Z,24.6
2023-02-12T00:54:41.523Z,26.4
2023-02-12T00:57:09.775Z,27.4
2023-02-12T00:59:38.030Z,31.3
2023-02-12T01:02:06.285Z,28.1
2023-02-12T01:04:34.544Z,29.2
2023-02-12T01:07:02.803Z,29.9
2023-02-12T01:09:31.059Z,34.3
2023-02-12T01:11:59.316Z,30.8
2023-02-12T01:13:14.051Z,33
2023-02-12T01:14:27.596Z,34.6
2023-02-12T01:16:55.846Z,32.9
2023-02-12T01:19:24.109Z,30.3
2023-02-12T01:24:20.620Z,27.8
2023-02-12T01:26:48.875Z,28.1
2023-02-12T01:29:17.128Z,34.5
2023-02-12T01:31:45.391Z,34.2
2023-02-12T01:34:13.649Z,31.6
2023-02-12T01:36:41.900Z,32.7
2023-02-12T01:37:56.632Z,34
2023-02-12T01:39:10.182Z,34.4
2023-02-12T01:41:38.438Z,29.7
2023-02-12T01:44:06.695Z,31.3
2023-02-12T01:46:34.944Z,30.2
2023-02-12T01:49:03.200Z,29.3
2023-02-12T01:51:31.463Z,28.9
2023-02-12T01:56:27.973Z,24.9
2023-02-12T01:58:56.230Z,27.2
2023-02-12T02:01:24.487Z,28
2023-02-12T02:02:39.216Z,28.1
2023-02-12T02:03:52.762Z,27.8
2023-02-12T02:06:21.016Z,25.7
2023-02-12T02:08:49.278Z,26.8
2023-02-12T02:11:17.534Z,19
2023-02-12T02:13:45.789Z,17.9
2023-02-12T02:16:14.046Z,17.8
2023-02-12T02:18:42.302Z,15.3
2023-02-12T02:21:10.564Z,11.6
2023-02-12T02:23:38.818Z,10
2023-02-12T02:27:21.805Z,8.6
2023-02-12T02:28:35.355Z,9.7
2023-02-12T02:31:03.610Z,9.5
2023-02-12T02:33:31.866Z,8.1
2023-02-12T02:36:00.116Z,7.9
2023-02-12T02:38:28.380Z,7.2
2023-02-12T02:40:56.629Z,7.4
2023-02-12T02:43:24.894Z,6.7
2023-02-12T02:45:53.144Z,6.3
2023-02-12T02:48:21.401Z,6.9
2023-02-12T02:50:49.661Z,7.6
2023-02-12T02:52:04.393Z,9.2
2023-02-12T02:53:17.943Z,11.4
2023-02-12T02:58:14.453Z,12.8
2023-02-12T03:00:42.704Z,11.8
2023-02-12T03:03:10.968Z,15.6
2023-02-12T03:05:39.225Z,16.2
2023-02-12T03:08:07.474Z,17.1
2023-02-12T03:10:35.738Z,16.1
2023-02-12T03:13:03.987Z,17.8
2023-02-12T03:15:32.242Z,19.9
2023-02-12T03:16:46.984Z,18
2023-02-12T03:18:00.530Z,19.6
2023-02-12T03:20:28.784Z,19.2
2023-02-12T03:22:57.037Z,22.6
2023-02-12T03:25:25.291Z,25.4
2023-02-12T03:30:21.813Z,28.7
2023-02-12T03:32:50.067Z,28.3
2023-02-12T03:35:18.319Z,30.7
2023-02-12T03:37:46.579Z,28.9
2023-02-12T03:40:14.835Z,30
2023-02-12T03:41:29.569Z,29.7
2023-02-12T03:42:43.111Z,30.9
2023-02-12T03:45:11.369Z,29.3
2023-02-12T03:47:39.627Z,27.4
2023-02-12T03:50:07.886Z,33
2023-02-12T03:52:36.135Z,29.2
2023-02-12T03:55:04.400Z,25.7
2023-02-12T03:57:32.651Z,23.5
2023-02-12T04:02:29.163Z,24.3
2023-02-12T04:04:57.426Z,22.1
2023-02-12T04:06:12.153Z,21.3
2023-02-12T04:07:25.699Z,24
2023-02-12T04:09:53.953Z,22.7
2023-02-12T04:12:22.213Z,28.2
2023-02-12T04:14:50.466Z,26.4
2023-02-12T04:17:18.729Z,24.8
2023-02-12T04:19:46.981Z,29.6
2023-02-12T04:22:15.236Z,28.5
2023-02-12T04:24:43.498Z,31.1
2023-02-12T04:27:11.748Z,36.6
2023-02-12T04:29:40.010Z,31.8
2023-02-12T04:32:08.269Z,31.8
2023-02-12T04:34:36.521Z,31.1
2023-02-12T04:37:04.785Z,30.1
2023-02-12T04:39:33.041Z,29.7
2023-02-12T04:42:01.292Z,38.3
2023-02-12T04:44:29.550Z,28.9
2023-02-12T04:46:57.810Z,27.8
2023-02-12T04:49:26.062Z,27.6
2023-02-12T04:51:54.324Z,30.2
2023-02-12T04:54:22.578Z,32.1
2023-02-12T04:55:37.330Z,26.9
2023-02-12T04:56:50.874Z,25.6
2023-02-12T04:59:19.128Z,27.1
2023-02-12T05:04:15.644Z,23.6
2023-02-12T05:06:43.895Z,22.4
2023-02-12T05:09:12.154Z,25.9
2023-02-12T05:11:40.415Z,22.3
2023-02-12T05:14:08.665Z,21.5
2023-02-12T05:16:36.925Z,21.7
2023-02-12T05:19:05.183Z,19.3
2023-02-12T05:20:19.909Z,20.2
2023-02-12T05:21:33.455Z,21.9
2023-02-12T05:24:01.714Z,21.7
2023-02-12T05:26:29.973Z,20.5
2023-02-12T05:28:58.225Z,21.6
2023-02-12T05:31:26.483Z,21.2
2023-02-12T05:36:22.999Z,22.4
2023-02-12T05:38:51.251Z,22
2023-02-12T05:41:19.516Z,17.6
2023-02-12T05:43:47.766Z,21.3
2023-02-12T05:45:02.505Z,22.2
2023-02-12T05:46:16.046Z,20.8
2023-02-12T05:48:44.306Z,24.4
2023-02-12T05:51:12.557Z,23.5
2023-02-12T05:53:40.811Z,24.3
2023-02-12T05:56:09.067Z,28
2023-02-12T05:58:37.327Z,26.8
2023-02-12T06:01:05.587Z,21.9
2023-02-12T06:03:33.842Z,24.2
2023-02-12T06:08:30.354Z,26.9
2023-02-12T06:09:45.086Z,26.3
2023-02-12T06:10:58.634Z,23.7
2023-02-12T06:13:26.883Z,24.2
2023-02-12T06:15:55.147Z,24.6
2023-02-12T06:18:23.399Z,30.2
2023-02-12T06:20:51.653Z,32.6
2023-02-12T06:23:19.912Z,29
2023-02-12T06:25:48.169Z,29.3
2023-02-12T06:28:16.426Z,29.1
2023-02-12T06:30:44.687Z,29.8
2023-02-12T06:33:12.945Z,31.8
2023-02-12T06:34:27.673Z,31.5
2023-02-12T06:38:09.710Z,31.4
2023-02-12T06:40:37.961Z,32.6
2023-02-12T06:43:06.218Z,31.8
2023-02-12T06:45:34.478Z,37.4
2023-02-12T06:48:02.732Z,35.8
2023-02-12T06:50:30.992Z,32.9
2023-02-12T06:52:59.242Z,33
2023-02-12T06:55:27.505Z,31.7
2023-02-12T06:57:55.758Z,32.8
2023-02-12T06:59:10.486Z,36.2
2023-02-12T07:00:24.029Z,34.2
2023-02-12T07:02:52.289Z,30.6
2023-02-12T07:05:20.549Z,30.6
2023-02-12T07:10:17.063Z,32.4
2023-02-12T07:12:45.321Z,39.6
2023-02-12T07:15:13.577Z,35.9
2023-02-12T07:17:41.831Z,41
2023-02-12T07:20:10.083Z,34.5
2023-02-12T07:22:38.341Z,37.5
2023-02-12T07:23:53.075Z,38.1
2023-02-12T07:25:06.614Z,46.3
2023-02-12T07:27:34.876Z,42.4
2023-02-12T07:30:03.128Z,40.5
2023-02-12T07:32:31.386Z,46.1
2023-02-12T07:34:59.642Z,38
2023-02-12T07:37:27.908Z,35.8
2023-02-12T07:42:24.417Z,39.9
2023-02-12T07:47:20.924Z,44
2023-02-12T07:48:35.658Z,46.6
2023-02-12T07:49:49.202Z,41.9
2023-02-12T07:52:17.464Z,46.4
2023-02-12T07:54:45.720Z,45.8
2023-02-12T07:57:13.974Z,45
2023-02-12T07:59:42.235Z,43.6
2023-02-12T08:02:10.488Z,42.1
2023-02-12T08:04:38.743Z,51.2
2023-02-12T08:07:07.000Z,43.5
2023-02-12T08:09:35.257Z,45.8
2023-02-12T08:13:18.249Z,53.9
2023-02-12T08:14:31.795Z,48.3
2023-02-12T08:17:00.045Z,45.5
2023-02-12T08:19:28.305Z,46.3
2023-02-12T08:21:56.561Z,47.6
2023-02-12T08:24:24.813Z,39.4
2023-02-12T08:26:53.073Z,43.9
2023-02-12T08:29:21.334Z,49
2023-02-12T08:31:49.588Z,44.1
2023-02-12T08:34:17.843Z,42.1
2023-02-12T08:36:46.103Z,39.2
2023-02-12T08:38:00.831Z,37.7
2023-02-12T08:39:14.374Z,45.7
2023-02-12T08:44:10.888Z,40.1
2023-02-12T08:46:39.150Z,41
2023-02-12T08:49:07.409Z,37.3
2023-02-12T08:51:35.657Z,38.4
2023-02-12T08:54:03.917Z,37.6
2023-02-12T08:56:32.175Z,35.2
2023-02-12T08:59:00.429Z,36.6
2023-02-12T09:01:28.692Z,34.6
2023-02-12T09:02:43.423Z,33.9
2023-02-12T09:03:56.968Z,33.7
2023-02-12T09:06:25.224Z,34.2
2023-02-12T09:08:53.475Z,36.1
2023-02-12T09:11:21.736Z,32
2023-02-12T09:16:18.249Z,33.9
2023-02-12T09:18:46.512Z,34.5
2023-02-12T09:21:14.770Z,34.4
2023-02-12T09:23:43.024Z,35.6
2023-02-12T09:26:11.276Z,39.6
2023-02-12T09:27:26.012Z,37.6
2023-02-12T09:28:39.555Z,34.8
2023-02-12T09:31:07.817Z,38.9
2023-02-12T09:33:36.069Z,35.8
2023-02-12T09:36:04.330Z,35.2
2023-02-12T09:38:32.584Z,34.9
2023-02-12T09:41:00.843Z,39.2
2023-02-12T09:43:29.101Z,35
2023-02-12T09:48:25.617Z,37.9
2023-02-12T09:50:53.869Z,35.3
2023-02-12T09:52:08.607Z,32.1
2023-02-12T09:53:22.143Z,29.4
2023-02-12T09:55:50.407Z,32.3
2023-02-12T09:58:18.658Z,32
2023-02-12T10:00:46.917Z,38.7
2023-02-12T10:03:15.180Z,34.4
2023-02-12T10:05:43.434Z,36.9
2023-02-12T10:08:11.694Z,37.4
2023-02-12T10:10:39.944Z,36.8
2023-02-12T10:13:08.202Z,36.3
2023-02-12T10:15:36.466Z,38.6
2023-02-12T10:18:04.726Z,28.8
2023-02-12T10:20:32.980Z,32.2
2023-02-12T10:23:01.234Z,32.3
2023-02-12T10:25:29.490Z,30.8
2023-02-12T10:27:57.748Z,29.2
2023-02-12T10:30:26.005Z,27.4
2023-02-12T10:32:54.267Z,27
2023-02-12T10:35:22.517Z,26.7
2023-02-12T10:37:50.775Z,25.5
2023-02-12T10:40:19.033Z,25.2
2023-02-12T10:41:33.783Z,25.3
2023-02-12T10:42:47.329Z,26.7
2023-02-12T10:45:15.589Z,26.9
2023-02-12T10:50:12.099Z,26.7
2023-02-12T10:52:40.361Z,26.6
2023-02-12T10:55:08.612Z,24
2023-02-12T10:57:36.871Z,25.3
2023-02-12T11:00:05.133Z,25.2
2023-02-12T11:02:33.390Z,28
2023-02-12T11:05:01.645Z,27.1
2023-02-12T11:06:16.372Z,26.8
2023-02-12T11:07:29.917Z,25.9
2023-02-12T11:09:58.176Z,24
2023-02-12T11:12:26.437Z,23.9
2023-02-12T11:14:54.687Z,24.7
2023-02-12T11:17:22.947Z,22.6
2023-02-12T11:22:19.464Z,22.1
2023-02-12T11:24:47.720Z,22.6
2023-02-12T11:27:15.980Z,17.1
2023-02-12T11:29:44.236Z,14.7
2023-02-12T11:30:58.967Z,11.9
2023-02-12T11:32:12.521Z,13.6
2023-02-12T11:34:40.766Z,11
2023-02-12T11:37:09.021Z,11.6
2023-02-12T11:39:37.287Z,10.2
2023-02-12T11:42:05.544Z,11.3
2023-02-12T11:44:33.797Z,7.5
2023-02-12T11:47:02.057Z,8
2023-02-12T11:49:30.312Z,6.8
2023-02-12T11:54:26.823Z,5.3
2023-02-12T11:55:41.555Z,3.6
2023-02-12T11:56:55.096Z,3.3
2023-02-12T11:59:23.357Z,3.9
2023-02-12T12:01:51.610Z,3.6
2023-02-12T12:04:19.869Z,4.3
2023-02-12T12:06:48.128Z,3.8
2023-02-12T12:09:16.386Z,3.1
2023-02-12T12:11:44.638Z,3.1
2023-02-12T12:14:12.904Z,2.5
2023-02-12T12:16:41.160Z,2.5
2023-02-12T12:19:09.414Z,2.3
2023-02-12T12:20:24.148Z,1.8
2023-02-12T12:24:06.177Z,1.8
2023-02-12T12:26:34.435Z,2.1
2023-02-12T12:29:02.691Z,2.6
2023-02-12T12:31:30.946Z,2.6
2023-02-12T12:33:59.205Z,2.5
2023-02-12T12:36:27.464Z,2
2023-02-12T12:38:55.717Z,2.2
2023-02-12T12:41:23.979Z,2.4
2023-02-12T12:43:52.233Z,2.5
2023-02-12T12:45:06.962Z,1.9
2023-02-12T12:46:20.509Z,1.8
2023-02-12T12:48:48.763Z,2.2
2023-02-12T12:51:17.021Z,1.9
2023-02-12T12:56:13.540Z,1.3
2023-02-12T12:58:41.790Z,1.2
2023-02-12T13:01:10.047Z,1.1
2023-02-12T13:03:38.304Z,1.1
2023-02-12T13:06:06.565Z,1.2
2023-02-12T13:08:34.818Z,1
2023-02-12T13:09:49.546Z,1
2023-02-12T13:11:03.095Z,1
2023-02-12T13:13:31.350Z,1.1
2023-02-12T13:15:59.608Z,1.4
2023-02-12T13:18:27.860Z,1.3
2023-02-12T13:20:56.125Z,1.6
2023-02-12T13:23:24.375Z,1.4
2023-02-12T13:28:20.887Z,1.6
2023-02-12T13:30:49.149Z,1.6
2023-02-12T13:33:17.401Z,2
2023-02-12T13:34:32.135Z,2.1
2023-02-12T13:35:45.679Z,1.7
2023-02-12T13:38:13.933Z,1.4
2023-02-12T13:40:42.190Z,1.7
2023-02-12T13:43:10.449Z,1.9
2023-02-12T13:45:38.703Z,2
2023-02-12T13:48:06.959Z,1.8
2023-02-12T13:50:35.216Z,2
2023-02-12T13:53:03.474Z,2.1
2023-02-12T13:55:31.733Z,2.7
2023-02-12T13:59:14.719Z,2.3
2023-02-12T14:00:28.265Z,2.4
2023-02-12T14:02:56.522Z,2.3
2023-02-12T14:05:24.784Z,2.5
2023-02-12T14:07:53.034Z,2.5
2023-02-12T14:10:21.291Z,3.2
2023-02-12T14:12:49.554Z,3.3
2023-02-12T14:15:17.805Z,3.2
2023-02-12T14:17:46.069Z,3.8
2023-02-12T14:20:14.324Z,4
2023-02-12T14:22:42.583Z,4.3
2023-02-12T14:23:57.317Z,5
2023-02-12T14:25:10.855Z,5.5
2023-02-12T14:30:07.371Z,6.1
2023-02-12T14:32:35.623Z,5.8
2023-02-12T14:35:03.879Z,7.7
2023-02-12T14:37:32.137Z,7.8
2023-02-12T14:40:00.399Z,11.5
2023-02-12T14:42:28.657Z,10.6
2023-02-12T14:44:56.910Z,16.9
2023-02-12T14:47:25.166Z,39
2023-02-12T14:48:39.901Z,20.2
2023-02-12T14:49:53.452Z,12.2
2023-02-12T14:52:21.708Z,12.5
2023-02-12T14:54:49.964Z,12.7
2023-02-12T14:57:18.222Z,11.5
2023-02-12T15:02:14.731Z,11.7
2023-02-12T15:04:42.993Z,11.5
2023-02-12T15:07:11.243Z,12.4
2023-02-12T15:09:39.507Z,11
2023-02-12T15:12:07.759Z,10.3
2023-02-12T15:13:22.497Z,10.7
2023-02-12T15:14:36.043Z,9.3
2023-02-12T15:17:04.295Z,10.3
2023-02-12T15:19:32.549Z,11
2023-02-12T15:22:00.806Z,10.7
2023-02-12T15:24:29.066Z,55.9
2023-02-12T15:26:57.323Z,11.4
2023-02-12T15:29:25.581Z,9.1
2023-02-12T15:34:22.092Z,9.1
2023-02-12T15:36:50.353Z,8.8
2023-02-12T15:38:05.085Z,41.4
2023-02-12T15:39:18.627Z,45.5
2023-02-12T15:41:46.887Z,20.9
2023-02-12T15:44:15.147Z,10.6
2023-02-12T15:46:43.403Z,10
2023-02-12T15:49:11.656Z,10.5
2023-02-12T15:51:39.917Z,11.6
2023-02-12T15:54:08.171Z,10.7
2023-02-12T15:56:36.431Z,11.1
2023-02-12T15:59:04.685Z,11.4
2023-02-12T16:01:32.949Z,12.1
2023-02-12T16:04:01.208Z,11.9
2023-02-12T16:06:29.460Z,13.8
2023-02-12T16:08:57.715Z,14
2023-02-12T16:11:25.970Z,15.6
2023-02-12T16:13:54.233Z,19.5
2023-02-12T16:16:22.487Z,19.6
2023-02-12T16:18:50.751Z,18
2023-02-12T16:21:19.008Z,16.9
2023-02-12T16:23:47.256Z,17.2
2023-02-12T16:26:15.519Z,18.5
2023-02-12T16:27:30.269Z,19.4
2023-02-12T16:28:43.810Z,21.6
2023-02-12T16:31:12.066Z,23
2023-02-12T16:36:08.582Z,21.8
2023-02-12T16:38:36.844Z,21.6
2023-02-12T16:41:05.096Z,27.5
2023-02-12T16:43:33.355Z,27
2023-02-12T16:46:01.613Z,28
2023-02-12T16:48:29.873Z,32.7
2023-02-12T16:50:58.132Z,31.2
2023-02-12T16:52:12.860Z,30.2
2023-02-12T16:53:26.416Z,30.3
2023-02-12T16:55:54.668Z,30.5
2023-02-12T16:58:22.929Z,36.5
2023-02-12T17:00:51.178Z,30.4
2023-02-12T17:03:19.433Z,32.8
2023-02-12T17:08:15.954Z,31.6
2023-02-12T17:10:44.208Z,35.9
2023-02-12T17:13:12.467Z,43.2
2023-02-12T17:15:40.725Z,40.3
2023-02-12T17:16:55.457Z,41.6
2023-02-12T17:18:09.002Z,42.3
2023-02-12T17:20:37.255Z,38.1
2023-02-12T17:23:05.513Z,35.9
2023-02-12T17:25:33.773Z,33.8
2023-02-12T17:28:02.024Z,36.3
2023-02-12T17:30:30.281Z,37
2023-02-12T17:32:58.541Z,34.5
2023-02-12T17:35:26.803Z,34.5
2023-02-12T17:40:23.318Z,35.2
2023-02-12T17:41:38.046Z,33.8
2023-02-12T17:42:51.594Z,33.2
2023-02-12T17:45:19.852Z,35.2
2023-02-12T17:47:48.106Z,33.9
2023-02-12T17:50:16.358Z,34
2023-02-12T17:52:44.616Z,34
2023-02-12T17:55:12.874Z,35.1
2023-02-12T17:57:41.132Z,33.1
2023-02-12T18:00:09.394Z,32.1
2023-02-12T18:02:37.643Z,33.5
2023-02-12T18:05:05.906Z,33.1
2023-02-12T18:06:20.640Z,32.6
2023-02-12T18:10:02.675Z,32.2
2023-02-12T18:12:30.929Z,32.7
2023-02-12T18:14:59.187Z,31.3
2023-02-12T18:17:27.445Z,31.1
2023-02-12T18:19:55.703Z,31.2
2023-02-12T18:22:23.958Z,29.4
2023-02-12T18:24:52.213Z,31.8
2023-02-12T18:27:20.471Z,29.8
2023-02-12T18:29:48.728Z,30.2
2023-02-12T18:31:03.459Z,30.8
2023-02-12T18:32:17.005Z,29.2
2023-02-12T18:34:45.264Z,29.3
2023-02-12T18:37:13.515Z,29
2023-02-12T18:42:10.033Z,31
2023-02-12T18:44:38.292Z,29.5
2023-02-12T18:47:06.548Z,30.2
2023-02-12T18:49:34.808Z,28.8
2023-02-12T18:52:03.060Z,29.8
2023-02-12T18:54:31.315Z,30.1
2023-02-12T18:55:46.058Z,29.4
2023-02-12T18:56:59.602Z,31
2023-02-12T18:59:27.855Z,30.1
2023-02-12T19:01:56.115Z,30.5
2023-02-12T19:04:24.368Z,30.1
2023-02-12T19:06:52.628Z,31.5
2023-02-12T19:09:20.882Z,30.3
2023-02-12T19:14:17.396Z,30.3
2023-02-12T19:16:45.655Z,29.8
2023-02-12T19:19:13.912Z,30
2023-02-12T19:20:28.650Z,29.2
2023-02-12T19:21:42.190Z,30.4
2023-02-12T19:24:10.450Z,30.7
2023-02-12T19:26:38.703Z,29.6
2023-02-12T19:29:06.963Z,30.3
2023-02-12T19:31:35.223Z,31.7
2023-02-12T19:34:03.479Z,30.4
2023-02-12T19:36:31.731Z,30.8
2023-02-12T19:38:59.994Z,29.3
2023-02-12T19:41:28.252Z,30.9
2023-02-12T19:45:11.235Z,29.4
2023-02-12T19:46:24.784Z,30.9
2023-02-12T19:48:53.036Z,30.1
2023-02-12T19:51:21.294Z,30.8
2023-02-12T19:53:49.551Z,32.9
2023-02-12T19:56:17.808Z,32.8
2023-02-12T19:58:46.071Z,31.5
2023-02-12T20:01:14.331Z,33.8
2023-02-12T20:03:42.583Z,33.2
2023-02-12T20:06:10.844Z,32.1
2023-02-12T20:08:39.101Z,32.3
2023-02-12T20:09:53.836Z,33.5
2023-02-12T20:11:07.372Z,33.3
2023-02-12T20:16:03.896Z,33.1
2023-02-12T20:18:32.152Z,31.3
2023-02-12T20:21:00.406Z,31.9
2023-02-12T20:23:28.665Z,29.3
2023-02-12T20:25:56.922Z,31.6
2023-02-12T20:28:25.175Z,29.8
2023-02-12T20:30:53.433Z,29.4
2023-02-12T20:33:21.694Z,29.5
2023-02-12T20:34:36.421Z,29.2
2023-02-12T20:35:49.963Z,29.2
2023-02-12T20:38:18.226Z,29.2
2023-02-12T20:40:46.482Z,29
2023-02-12T20:43:14.739Z,29.1
2023-02-12T20:48:11.250Z,27.8
2023-02-12T20:50:39.515Z,28.5
2023-02-12T20:53:07.766Z,30.4
2023-02-12T20:55:36.020Z,30.4
2023-02-12T20:58:04.280Z,29.7
2023-02-12T20:59:19.019Z,28.2
2023-02-12T21:00:32.562Z,29.3
2023-02-12T21:03:00.816Z,29.9
2023-02-12T21:05:29.070Z,28.7
2023-02-12T21:07:57.328Z,29.3
2023-02-12T21:10:25.587Z,30.3
2023-02-12T21:12:53.848Z,31.5
2023-02-12T21:15:22.096Z,29.5
2023-02-12T21:20:18.612Z,30.5
2023-02-12T21:22:46.870Z,32.4
2023-02-12T21:24:01.601Z,32.1
2023-02-12T21:25:15.148Z,30.8
2023-02-12T21:27:43.408Z,32.3
2023-02-12T21:30:11.666Z,30.7
2023-02-12T21:32:39.922Z,29.7
2023-02-12T21:35:08.181Z,33.3
2023-02-12T21:37:36.435Z,33.2
2023-02-12T21:40:04.694Z,32.4
2023-02-12T21:42:32.953Z,32.2
2023-02-12T21:45:01.210Z,32.8
2023-02-12T21:47:29.462Z,33.2
2023-02-12T21:49:57.724Z,33.1
2023-02-12T21:52:25.977Z,33.4
2023-02-12T21:54:54.241Z,32.7
2023-02-12T21:57:22.495Z,33.7
2023-02-12T21:59:50.749Z,34.7
2023-02-12T22:02:19.009Z,34.6
2023-02-12T22:04:47.268Z,35.6
2023-02-12T22:07:15.521Z,33.5
2023-02-12T22:09:43.777Z,33.6
2023-02-12T22:12:12.038Z,34.2
2023-02-12T22:13:26.790Z,34
2023-02-12T22:14:40.333Z,35.5
2023-02-12T22:17:08.587Z,35.9
2023-02-12T22:22:05.108Z,35.5
2023-02-12T22:24:33.365Z,37.3
2023-02-12T22:27:01.614Z,35.4
2023-02-12T22:29:29.876Z,34.5
2023-02-12T22:31:58.132Z,37.2
2023-02-12T22:34:26.391Z,35
2023-02-12T22:36:54.652Z,35.3
2023-02-12T22:38:09.382Z,35.7
2023-02-12T22:39:22.928Z,34.6
2023-02-12T22:41:51.180Z,35.3
2023-02-12T22:44:19.441Z,34.3
2023-02-12T22:46:47.694Z,35.6
2023-02-12T22:49:15.952Z,34.9
2023-02-12T22:54:12.466Z,35.3
2023-02-12T22:56:40.723Z,36.7
2023-02-12T22:59:08.984Z,35.6
2023-02-12T23:01:37.236Z,37.2
2023-02-12T23:02:51.967Z,36.7
2023-02-12T23:04:05.512Z,35.1
2023-02-12T23:06:33.774Z,37.3
2023-02-12T23:09:02.030Z,34.1
2023-02-12T23:11:30.290Z,36.2
2023-02-12T23:13:58.546Z,36.7
2023-02-12T23:16:26.798Z,35.3
2023-02-12T23:18:55.053Z,35.6
2023-02-12T23:21:23.319Z,36.1
2023-02-12T23:26:19.833Z,33.1
2023-02-12T23:27:34.563Z,35.3
2023-02-12T23:28:48.109Z,34.6
2023-02-12T23:31:16.363Z,34.6
2023-02-12T23:33:44.622Z,32.9
2023-02-12T23:36:12.874Z,36.1
2023-02-12T23:38:41.135Z,33.2
2023-02-12T23:41:09.393Z,33.5
2023-02-12T23:43:37.644Z,34.8
2023-02-12T23:46:05.902Z,33.4
2023-02-12T23:48:34.158Z,34.1
2023-02-12T23:51:02.416Z,33.4
2023-02-12T23:52:17.152Z,36.7
2023-02-12T23:55:59.189Z,35.7
2023-02-12T23:58:27.439Z,33.7
